Air Resources Laboratory banner image
Air Resources Laboratory web site National Oceanic and Atmospheric Administration (NOAA)

ky metar


KBWG 201553Z AUTO 34005KT 9SM OVC016 05/01 A3028 RMK AO2 SLP257 T00500011=
KCVG 201552Z 31011KT 7SM SCT013 OVC025 03/01 A3019 RMK AO2 RAB1455E13 SLP227
 P0000 T00330011=
KEHR 201556Z AUTO 32011KT 10SM OVC018 01/M03 A3033 RMK AO2 SLP285 T00061028
 FZRANO=
KEKX 201555Z AUTO 27005KT 10SM BKN016 OVC025 05/02 A3025 RMK AO2 T00450017=
KFFT 201551Z AUTO 28005KT 6SM BR SCT011 SCT023 OVC030 04/02 A3021 RMK AO2
 SLP234 T00390022=
KFTK 201556Z 28009KT 10SM BKN014 05/01 A3025 RMK SLP251 T00470014 CHINO RWY36 $=
KHOP 201556Z AUTO 32008KT 9SM OVC012 04/01 A3030 RMK AO2 SLP266 T00420014
 FZRANO $=
KJKL 201553Z AUTO VRB04KT 10SM BKN010 BKN014 OVC021 04/02 A3019 RMK AO2
 RAB21E36 CIG 005V012 SLP226 P0000 T00390022=
KLEX 201554Z 28009KT 7SM OVC010 04/02 A3022 RMK AO2 CIG 009V013 SLP236
 T00390017=
KLOU 201553Z 29011KT 8SM SCT018 SCT028 OVC034 05/M01 A3025 RMK AO2 SLP244
 T00501006=
KLOZ 201553Z AUTO 28007KT 10SM FEW018 OVC036 06/02 A3021 RMK AO2 SLP233
 T00560022 $=
KOWB 201556Z 33009KT 7SM BR OVC018 02/M01 A3031 RMK AO2 SLP279 T00221011=
KPAH 201553Z 02008KT 10SM OVC018 03/M02 A3032 RMK AO2 SLP271 T00331017=
KSDF 201556Z 31010KT 8SM BKN018 OVC024 04/M01 A3025 RMK AO2 SLP246 T00441006=
KSME 201555Z AUTO 28003KT 10SM OVC040 05/01 A3025 RMK AO2=